Menu Close Menu
Station Historical Data
Daily Summary for May 9, 2017 Units:  Metric    English   Both
« Previous Day
Next Day »
Daily Weekly Monthly Yearly Custom
  High: Low: Average:
Temperature: 29.2 °C 14 °C 21.2 °C
Dew Point: 14.8 °C 9.6 °C 12 °C
Humidity: 82% 34% 59%
Wind Speed: 8km/h 0km/h 0.3km/h
Wind Gust: 12.9km/h - -
Wind- - WSW
Pressure: 1019.2 hPa 1015.1 hPa -
Precipitation: 0 mm    
Historical Graphs
 
 
Tabular Data for May 9, 2017
Time Temperature Dew Point Pressure Wind Wind Speed Wind Gust Humidity Rainfall Rate (Hourly) solar Conditions
00:00 16.1 °C 11.2 °C 1018.2 hPa Calm     73% 0 mm WeatherDisplay:10.37 W/m2 SCT
00:15 16.1 °C 11.2 °C 1018.2 hPa Calm     73% 0 mm WeatherDisplay:10.37 W/m2 SCT
00:30 16.1 °C 11.2 °C 1018.2 hPa Calm     73% 0 mm WeatherDisplay:10.37 W/m2 SCT
00:45 16.1 °C 11.2 °C 1018.2 hPa Calm     73% 0 mm WeatherDisplay:10.37 W/m2 SCT
01:00 15.3 °C 10.9 °C 1018.5 hPa Calm     75% 0 mm WeatherDisplay:10.37 W/m2 SCT
01:15 15.1 °C 11.1 °C 1018.5 hPa Calm     77% 0 mm WeatherDisplay:10.37 W/m2 SCT
01:30 14.9 °C 10.9 °C 1018.5 hPa Calm     77% 0 mm WeatherDisplay:10.37 W/m2 SCT
01:45 14.8 °C 10.8 °C 1018.5 hPa Calm     77% 0 mm WeatherDisplay:10.37 W/m2 SCT
02:00 14.8 °C 11.1 °C 1018.2 hPa Calm     78% 0 mm WeatherDisplay:10.37 W/m2 SCT
02:15 14.8 °C 10.8 °C 1018.2 hPa Calm     77% 0 mm WeatherDisplay:10.37 W/m2 SCT
02:30 14.8 °C 10.8 °C 1017.8 hPa Calm     77% 0 mm WeatherDisplay:10.37 W/m2 SCT
02:45 14.9 °C 10.7 °C 1017.8 hPa Calm     76% 0 mm WeatherDisplay:10.37 W/m2 SCT
03:00 14.8 °C 10.8 °C 1017.8 hPa Calm     77% 0 mm WeatherDisplay:10.37 W/m2 SCT
03:15 15 °C 10.4 °C 1017.8 hPa Calm     74% 0 mm WeatherDisplay:10.37 W/m2 SCT
03:30 14.7 °C 10.3 °C 1017.8 hPa Calm     75% 0 mm WeatherDisplay:10.37 W/m2 SCT
03:45 15 °C 10.4 °C 1017.8 hPa Calm     74% 0 mm WeatherDisplay:10.37 W/m2 SCT
04:00 14 °C 9.6 °C 1017.8 hPa Calm     75% 0 mm WeatherDisplay:10.37 W/m2 SCT
04:15 14 °C 9.6 °C 1017.8 hPa Calm     75% 0 mm WeatherDisplay:10.37 W/m2 SCT
04:30 14 °C 9.6 °C 1017.8 hPa Calm     75% 0 mm WeatherDisplay:10.37 W/m2 SCT
04:45 14 °C 9.6 °C 1017.8 hPa Calm     75% 0 mm WeatherDisplay:10.37 W/m2 SCT
05:00 14 °C 9.6 °C 1017.8 hPa Calm     75% 0 mm WeatherDisplay:10.37 W/m2 SCT
05:15 14 °C 9.6 °C 1017.5 hPa Calm     75% 0 mm WeatherDisplay:10.37 W/m2 SCT
05:30 14 °C 9.6 °C 1017.5 hPa Calm     75% 0 mm WeatherDisplay:10.37 W/m2 SCT
05:45 14 °C 9.6 °C 1017.5 hPa Calm     75% 0 mm WeatherDisplay:10.37 W/m2 SCT
06:00 14 °C 9.6 °C 1017.5 hPa Calm     75% 0 mm WeatherDisplay:10.37 W/m2 SCT
06:15 14 °C 9.6 °C 1017.5 hPa Calm     75% 0 mm WeatherDisplay:10.37 W/m2 SCT
06:30 14 °C 9.6 °C 1017.5 hPa Calm     75% 0 mm WeatherDisplay:10.37 W/m2 SCT
06:45 14 °C 9.6 °C 1017.8 hPa Calm     75% 0 mm WeatherDisplay:10.37 W/m2 SCT
07:00 14 °C 9.6 °C 1017.8 hPa Calm     75% 0 mm WeatherDisplay:10.37 W/m2 SCT
07:15 14 °C 9.6 °C 1017.8 hPa Calm     75% 0 mm WeatherDisplay:10.37 W/m2 SCT
07:30 14 °C 9.6 °C 1017.8 hPa Calm     75% 0 mm WeatherDisplay:10.37 W/m2 SCT
07:45 14 °C 9.6 °C 1018.2 hPa Calm     75% 0 mm WeatherDisplay:10.37 W/m2 SCT
08:00 14 °C 9.6 °C 1017.8 hPa Calm     75% 0 mm WeatherDisplay:10.37 W/m2 SCT
08:15 15.8 °C 12.8 °C 1018.5 hPa Calm     82% 0 mm WeatherDisplay:10.37 W/m2 SCT
08:30 15.8 °C 12.8 °C 1018.5 hPa Calm     82% 0 mm WeatherDisplay:10.37 W/m2 SCT
08:45 17.4 °C 13.7 °C 1018.5 hPa Calm     79% 0 mm WeatherDisplay:10.37 W/m2 SCT
09:00 15.8 °C 12.8 °C 1018.5 hPa Calm     82% 0 mm WeatherDisplay:10.37 W/m2 SCT
09:15 20.2 °C 12.7 °C 1018.8 hPa Calm   8 km/h 62% 0 mm WeatherDisplay:10.37 W/m2 SCT
09:30 21.6 °C 13.5 °C 1018.8 hPa Calm   4.8 km/h 60% 0 mm WeatherDisplay:10.37 W/m2 SCT
09:45 21.8 °C 13.2 °C 1018.8 hPa Calm   1.6 km/h 58% 0 mm WeatherDisplay:10.37 W/m2 SCT
10:00 21.8 °C 13.2 °C 1018.8 hPa Calm     58% 0 mm WeatherDisplay:10.37 W/m2 SCT
10:15 23.7 °C 13.5 °C 1019.2 hPa Calm   1.6 km/h 53% 0 mm WeatherDisplay:10.37 W/m2 SCT
10:30 23.9 °C 13.7 °C 1019.2 hPa Calm   3.2 km/h 53% 0 mm WeatherDisplay:10.37 W/m2 SCT
10:45 24.5 °C 13.7 °C 1019.2 hPa Calm   9.7 km/h 51% 0 mm WeatherDisplay:10.37 W/m2 SCT
11:00 24.9 °C 13.7 °C 1019.2 hPa Calm   4.8 km/h 50% 0 mm WeatherDisplay:10.37 W/m2 SCT
11:15 25.4 °C 14.8 °C 1019.2 hPa WNW 1.6 km/h 4.8 km/h 52% 0 mm WeatherDisplay:10.37 W/m2 SCT
11:30 25.4 °C 12.9 °C 1019.2 hPa Calm   4.8 km/h 46% 0 mm WeatherDisplay:10.37 W/m2 SCT
11:45 24.3 °C 13.8 °C 1019.2 hPa WSW 1.6 km/h 1.6 km/h 52% 0 mm WeatherDisplay:10.37 W/m2 SCT
12:00 24.3 °C 13.8 °C 1019.2 hPa WSW 1.6 km/h 1.6 km/h 52% 0 mm WeatherDisplay:10.37 W/m2 SCT
12:15 24.3 °C 13.8 °C 1019.2 hPa WSW 1.6 km/h 1.6 km/h 52% 0 mm WeatherDisplay:10.37 W/m2 SCT
12:30 27.2 °C 12.7 °C 1019.2 hPa West 1.6 km/h 8 km/h 41% 0 mm WeatherDisplay:10.37 W/m2 SCT
12:45 27.4 °C 13.7 °C 1018.8 hPa Calm   4.8 km/h 43% 0 mm WeatherDisplay:10.37 W/m2 SCT
13:00 28.4 °C 14.7 °C 1018.5 hPa Calm   4.8 km/h 43% 0 mm WeatherDisplay:10.37 W/m2 SCT
13:15 28.9 °C 13.2 °C 1018.5 hPa WNW 1.6 km/h 11.3 km/h 38% 0 mm WeatherDisplay:10.37 W/m2 SCT
13:30 29.2 °C 13.8 °C 1018.5 hPa WSW 1.6 km/h 3.2 km/h 39% 0 mm WeatherDisplay:10.37 W/m2 SCT
13:45 28.7 °C 14.2 °C 1018.2 hPa Calm   8 km/h 41% 0 mm WeatherDisplay:10.37 W/m2 SCT
14:00 28.7 °C 14.2 °C 1018.2 hPa Calm     41% 0 mm WeatherDisplay:10.37 W/m2 SCT
14:15 28.7 °C 14.2 °C 1018.2 hPa Calm     41% 0 mm WeatherDisplay:10.37 W/m2 SCT
14:30 28.7 °C 14.2 °C 1018.2 hPa Calm     41% 0 mm WeatherDisplay:10.37 W/m2 SCT
14:45 28.8 °C 12.2 °C 1017.5 hPa WNW 1.6 km/h 4.8 km/h 36% 0 mm WeatherDisplay:10.37 W/m2 SCT
15:00 28.9 °C 12.8 °C 1017.5 hPa Calm   8 km/h 37% 0 mm WeatherDisplay:10.37 W/m2 SCT
15:15 28.6 °C 12 °C 1017.5 hPa WSW 1.6 km/h 8 km/h 36% 0 mm WeatherDisplay:10.37 W/m2 SCT
15:30 28.9 °C 11.9 °C 1017.5 hPa Calm   3.2 km/h 35% 0 mm WeatherDisplay:10.37 W/m2 SCT
15:45 28.2 °C 12.5 °C 1016.8 hPa Calm   12.9 km/h 38% 0 mm WeatherDisplay:10.37 W/m2 SCT
16:00 28.2 °C 12.5 °C 1016.5 hPa Calm   8 km/h 38% 0 mm WeatherDisplay:10.37 W/m2 SCT
16:15 28.3 °C 12.6 °C 1016.5 hPa NW 1.6 km/h 3.2 km/h 38% 0 mm WeatherDisplay:10.37 W/m2 SCT
16:30 28.2 °C 12.1 °C 1017.2 hPa SSW 1.6 km/h 8 km/h 37% 0 mm WeatherDisplay:10.37 W/m2 SCT
16:45 28.1 °C 12.1 °C 1016.1 hPa South 8 km/h 8 km/h 37% 0 mm WeatherDisplay:10.37 W/m2 SCT
17:00 28.3 °C 11.4 °C 1016.1 hPa Calm   8 km/h 35% 0 mm WeatherDisplay:10.37 W/m2 SCT
17:15 28.4 °C 11.1 °C 1015.8 hPa Calm   4.8 km/h 34% 0 mm WeatherDisplay:10.37 W/m2 SCT
17:30 28.2 °C 11.7 °C 1015.8 hPa Calm   4.8 km/h 36% 0 mm WeatherDisplay:10.37 W/m2 SCT
17:45 28.2 °C 10.8 °C 1016.1 hPa Calm     34% 0 mm WeatherDisplay:10.37 W/m2 SCT
18:00 28.2 °C 10.8 °C 1016.1 hPa Calm     34% 0 mm WeatherDisplay:10.37 W/m2 SCT
18:15 28.2 °C 10.8 °C 1016.1 hPa Calm     34% 0 mm WeatherDisplay:10.37 W/m2 SCT
18:30 27.1 °C 12 °C 1015.5 hPa Calm   3.2 km/h 39% 0 mm WeatherDisplay:10.37 W/m2 SCT
18:45 26.8 °C 12.1 °C 1015.1 hPa Calm   3.2 km/h 40% 0 mm WeatherDisplay:10.37 W/m2 SCT
19:00 26.4 °C 12.5 °C 1015.5 hPa Calm   3.2 km/h 42% 0 mm WeatherDisplay:10.37 W/m2 SCT
19:15 26.2 °C 12.9 °C 1015.5 hPa Calm     44% 0 mm WeatherDisplay:10.37 W/m2 SCT
19:30 25.9 °C 12.3 °C 1015.1 hPa Calm   1.6 km/h 43% 0 mm WeatherDisplay:10.37 W/m2 SCT
19:45 25.2 °C 12.4 °C 1015.1 hPa Calm     45% 0 mm WeatherDisplay:10.37 W/m2 SCT
20:00 24.7 °C 12.6 °C 1015.5 hPa Calm     47% 0 mm WeatherDisplay:10.37 W/m2 SCT
20:15 24.5 °C 12.4 °C 1015.5 hPa Calm     47% 0 mm WeatherDisplay:10.37 W/m2 SCT
20:30 23.6 °C 13.2 °C 1015.8 hPa Calm     52% 0 mm WeatherDisplay:10.37 W/m2 SCT
20:45 23.6 °C 13.2 °C 1015.8 hPa Calm     52% 0 mm WeatherDisplay:10.37 W/m2 SCT
21:00 23.6 °C 13.2 °C 1015.8 hPa Calm     52% 0 mm WeatherDisplay:10.37 W/m2 SCT
21:15 21.8 °C 12.9 °C 1015.8 hPa Calm     57% 0 mm WeatherDisplay:10.37 W/m2 SCT
21:30 21.3 °C 13 °C 1015.8 hPa Calm     59% 0 mm WeatherDisplay:10.37 W/m2 SCT
21:45 20.8 °C 12.8 °C 1016.1 hPa Calm     60% 0 mm WeatherDisplay:10.37 W/m2 SCT
22:00 20.3 °C 12.8 °C 1016.1 hPa Calm     62% 0 mm WeatherDisplay:10.37 W/m2 SCT
22:15 19.9 °C 13.2 °C 1016.1 hPa Calm     65% 0 mm WeatherDisplay:10.37 W/m2 SCT
22:30 19.5 °C 13 °C 1016.1 hPa Calm     66% 0 mm WeatherDisplay:10.37 W/m2 SCT
22:45 19.3 °C 13 °C 1016.5 hPa Calm     67% 0 mm WeatherDisplay:10.37 W/m2 SCT
23:00 19.1 °C 13.2 °C 1016.5 hPa Calm     69% 0 mm WeatherDisplay:10.37 W/m2 SCT
23:15 19.1 °C 13.4 °C 1016.5 hPa Calm     70% 0 mm WeatherDisplay:10.37 W/m2 SCT
23:30 18.8 °C 13.2 °C 1016.5 hPa Calm     70% 0 mm WeatherDisplay:10.37 W/m2 SCT
23:45 18.8 °C 13.4 °C 1016.5 hPa Calm     71% 0 mm WeatherDisplay:10.37 W/m2 SCT
Piedmont Bend
Compliments of Weather Underground - 4 mb